Time;durP1;ratioP1;P1;durP2;ratioP2;P2;SDS_P1;SDS_P2;PMS_P1;PMS_P2;Temp;Humidity;BMP_temperature;BMP_pressure;BME280_temperature;BME280_humidity;BME280_pressure;Samples;Min_cycle;Max_cycle;Signal;HPM_P1;HPM_P2
2020/12/25 00:00:49;;;;;;;6.00;2.50;;;4.30;99.90;;;;;;4843203;29;20210;-93
2020/12/25 00:03:16;;;;;;;4.20;2.00;;;4.30;99.90;;;;;;4843609;29;20722;-92
2020/12/25 00:05:50;;;;;;;5.57;2.23;;;4.20;99.90;;;;;;4843144;29;20181;-93
2020/12/25 00:08:15;;;;;;;8.77;2.77;;;4.30;99.90;;;;;;5263916;24;20236;-89
2020/12/25 00:10:42;;;;;;;5.40;2.20;;;4.20;99.90;;;;;;4863661;29;20516;-89
2020/12/25 00:13:09;;;;;;;5.97;2.27;;;4.20;99.90;;;;;;4864065;29;20219;-89
2020/12/25 00:15:34;;;;;;;6.87;2.27;;;4.30;99.90;;;;;;4862968;29;20196;-89
2020/12/25 00:18:00;;;;;;;4.83;1.90;;;4.30;99.90;;;;;;4847353;29;20246;-88
2020/12/25 00:20:26;;;;;;;7.07;2.00;;;4.30;99.90;;;;;;4862122;29;20195;-89
2020/12/25 00:22:53;;;;;;;5.33;2.03;;;4.20;99.90;;;;;;4863534;29;20192;-89
2020/12/25 00:25:19;;;;;;;7.47;1.93;;;4.20;99.90;;;;;;4862458;29;20185;-89
2020/12/25 00:27:46;;;;;;;4.37;1.77;;;4.20;99.90;;;;;;4863229;29;20191;-89
2020/12/25 00:30:11;;;;;;;7.20;1.90;;;4.10;99.90;;;;;;4863656;29;20560;-89
2020/12/25 00:32:37;;;;;;;6.40;2.10;;;4.10;99.90;;;;;;4862525;29;20180;-89
2020/12/25 00:35:03;;;;;;;9.80;2.03;;;4.10;99.90;;;;;;4863182;29;20177;-89
2020/12/25 00:37:32;;;;;;;3.77;1.50;;;4.20;99.90;;;;;;4869265;29;20211;-88
2020/12/25 00:39:59;;;;;;;7.97;2.43;;;4.10;99.90;;;;;;4884111;29;20188;-89
2020/12/25 00:42:25;;;;;;;7.47;2.17;;;4.10;99.90;;;;;;4884739;29;20173;-88
2020/12/25 00:44:51;;;;;;;3.83;1.90;;;4.10;99.90;;;;;;4884121;29;20255;-89
2020/12/25 00:47:22;;;;;;;4.90;1.70;;;4.10;99.90;;;;;;4883570;29;20184;-92
2020/12/25 00:49:54;;;;;;;5.40;2.03;;;4.10;99.90;;;;;;4883708;29;20180;-88
2020/12/25 00:52:23;;;;;;;9.10;1.93;;;4.00;99.90;;;;;;4882865;29;20204;-88
2020/12/25 00:54:51;;;;;;;6.47;1.93;;;4.10;99.90;;;;;;4897327;23;20209;-91
2020/12/25 00:57:29;;;;;;;;;;;;;;;;;;;;;
2020/12/25 00:59:55;;;;;;;7.33;1.63;;;4.00;99.90;;;;;;4861623;29;20164;-91
2020/12/25 01:02:22;;;;;;;5.90;1.73;;;4.00;99.90;;;;;;4860460;29;20295;-91
2020/12/25 01:04:48;;;;;;;5.03;1.80;;;4.00;99.90;;;;;;4845018;29;20188;-90
2020/12/25 01:07:14;;;;;;;4.90;2.17;;;4.00;99.90;;;;;;4844928;29;20176;-91
2020/12/25 01:09:40;;;;;;;4.20;1.63;;;4.00;99.90;;;;;;4844947;29;20175;-90
2020/12/25 01:12:05;;;;;;;5.97;2.37;;;4.00;99.90;;;;;;4844941;29;20211;-91
2020/12/25 01:14:31;;;;;;;6.17;2.10;;;4.00;99.90;;;;;;4844954;29;20649;-90
2020/12/25 01:16:58;;;;;;;7.67;2.00;;;4.00;99.90;;;;;;4844721;29;20211;-90
2020/12/25 01:19:25;;;;;;;5.93;1.97;;;4.00;99.90;;;;;;4844728;29;20183;-91
2020/12/25 01:21:51;;;;;;;7.97;2.07;;;4.00;99.90;;;;;;4844691;29;20241;-90
2020/12/25 01:24:17;;;;;;;6.37;1.90;;;4.00;99.90;;;;;;4844563;29;20240;-91
2020/12/25 01:26:43;;;;;;;10.03;2.27;;;3.90;99.90;;;;;;4844699;29;20641;-92
2020/12/25 01:29:08;;;;;;;5.80;1.57;;;3.90;99.90;;;;;;4844609;29;20176;-91
2020/12/25 01:31:34;;;;;;;4.73;1.77;;;3.90;99.90;;;;;;4845478;29;20570;-91
2020/12/25 01:34:00;;;;;;;5.43;2.07;;;3.80;99.90;;;;;;4848095;29;20232;-91
2020/12/25 01:36:26;;;;;;;6.47;2.20;;;3.80;99.90;;;;;;4847876;29;20183;-92
2020/12/25 01:38:53;;;;;;;5.47;1.83;;;3.80;99.90;;;;;;4847888;29;20209;-92
2020/12/25 01:41:19;;;;;;;5.90;1.77;;;3.80;99.90;;;;;;4847801;29;20200;-90
2020/12/25 01:43:45;;;;;;;5.40;1.80;;;3.80;99.90;;;;;;4847529;29;20184;-90
2020/12/25 01:46:12;;;;;;;2.57;1.57;;;3.80;99.90;;;;;;4847681;29;20189;-91
2020/12/25 01:48:38;;;;;;;7.63;2.27;;;3.70;99.90;;;;;;4847598;29;20640;-91
2020/12/25 01:51:06;;;;;;;4.50;1.57;;;3.70;99.90;;;;;;4847685;29;20219;-91
2020/12/25 01:53:35;;;;;;;7.80;2.13;;;3.70;99.90;;;;;;4847628;29;20550;-91
2020/12/25 01:56:03;;;;;;;7.37;1.70;;;3.70;99.90;;;;;;4822715;29;746468;-91
2020/12/25 01:58:31;;;;;;;4.53;2.07;;;3.60;99.90;;;;;;4848530;29;20243;-91
2020/12/25 02:00:58;;;;;;;7.73;1.80;;;3.60;99.90;;;;;;4848688;29;20196;-91
2020/12/25 02:03:23;;;;;;;5.33;2.20;;;3.70;99.90;;;;;;4848540;29;20630;-90
2020/12/25 02:05:49;;;;;;;5.27;1.70;;;3.70;99.90;;;;;;4848563;29;20272;-91
2020/12/25 02:08:16;;;;;;;5.07;1.83;;;3.70;99.90;;;;;;4848567;29;20223;-90
2020/12/25 02:10:42;;;;;;;3.80;1.43;;;3.70;99.90;;;;;;4848603;29;20232;-91
2020/12/25 02:13:09;;;;;;;5.93;1.70;;;3.80;99.90;;;;;;4848416;29;20195;-92
2020/12/25 02:15:35;;;;;;;7.50;2.00;;;3.70;99.90;;;;;;4848331;29;20273;-91
2020/12/25 02:18:03;;;;;;;4.33;1.50;;;3.70;99.90;;;;;;4848465;29;20209;-90
2020/12/25 02:20:30;;;;;;;6.27;1.67;;;3.70;99.90;;;;;;4848266;29;20180;-90
2020/12/25 02:22:57;;;;;;;4.13;1.73;;;3.60;99.90;;;;;;4848468;29;20224;-91
2020/12/25 02:25:23;;;;;;;6.07;1.80;;;3.60;99.90;;;;;;4848131;29;20207;-91
2020/12/25 02:27:48;;;;;;;6.10;2.00;;;3.60;99.90;;;;;;4848070;29;20220;-91
2020/12/25 02:30:14;;;;;;;4.77;1.80;;;3.70;99.90;;;;;;4848674;29;20218;-91
2020/12/25 02:32:41;;;;;;;5.97;2.20;;;3.70;99.90;;;;;;4848158;29;20609;-91
2020/12/25 02:35:07;;;;;;;5.57;1.77;;;3.70;99.90;;;;;;4848056;29;20550;-91
2020/12/25 02:37:33;;;;;;;5.13;1.70;;;3.60;99.90;;;;;;4847657;29;20204;-90
2020/12/25 02:39:59;;;;;;;7.53;2.00;;;3.60;99.90;;;;;;4847832;29;20187;-91
2020/12/25 02:42:25;;;;;;;6.37;1.97;;;3.60;99.90;;;;;;4847489;29;20286;-90
2020/12/25 02:44:51;;;;;;;4.43;1.70;;;3.60;99.90;;;;;;4847042;29;20207;-90
2020/12/25 02:47:17;;;;;;;2.87;1.80;;;3.60;99.90;;;;;;4847726;29;20634;-91
2020/12/25 02:49:43;;;;;;;3.53;1.70;;;3.60;99.90;;;;;;4847686;29;20661;-90
2020/12/25 02:52:09;;;;;;;4.07;1.70;;;3.50;99.90;;;;;;4847718;29;20739;-91
2020/12/25 02:54:35;;;;;;;3.80;1.60;;;3.60;99.90;;;;;;4847535;29;20327;-90
2020/12/25 02:57:01;;;;;;;5.70;1.37;;;3.60;99.90;;;;;;4844376;29;20331;-92
2020/12/25 02:59:27;;;;;;;6.57;1.70;;;3.60;99.90;;;;;;4844642;29;20344;-90
2020/12/25 03:01:53;;;;;;;5.13;1.53;;;3.60;99.90;;;;;;4844791;29;20211;-91
2020/12/25 03:04:19;;;;;;;3.40;1.27;;;3.60;99.90;;;;;;4844648;29;20184;-91
2020/12/25 03:06:45;;;;;;;2.93;1.30;;;3.60;99.90;;;;;;4844595;29;20181;-90
2020/12/25 03:09:13;;;;;;;5.70;1.70;;;3.60;99.90;;;;;;4844481;29;20181;-90
2020/12/25 03:11:38;;;;;;;5.47;1.33;;;3.60;99.90;;;;;;4844764;29;20677;-91
2020/12/25 03:14:04;;;;;;;4.17;1.60;;;3.50;99.90;;;;;;4844651;29;20189;-90
2020/12/25 03:16:30;;;;;;;4.63;1.27;;;3.50;99.90;;;;;;4844387;29;20208;-91
2020/12/25 03:18:58;;;;;;;7.17;1.30;;;3.60;99.90;;;;;;4844196;29;20212;-90
2020/12/25 03:21:25;;;;;;;3.60;1.43;;;3.50;99.90;;;;;;4844080;29;20202;-91
2020/12/25 03:23:51;;;;;;;3.53;1.57;;;3.50;99.90;;;;;;4843968;29;20200;-91
2020/12/25 03:26:17;;;;;;;3.77;1.40;;;3.50;99.90;;;;;;4843950;29;20208;-90
2020/12/25 03:28:44;;;;;;;4.67;1.50;;;3.60;99.90;;;;;;4844033;29;20192;-90
2020/12/25 03:31:09;;;;;;;5.83;1.33;;;3.50;99.90;;;;;;4843919;29;20205;-91
2020/12/25 03:33:35;;;;;;;4.20;1.20;;;3.50;99.90;;;;;;4843916;29;20702;-90
2020/12/25 03:36:03;;;;;;;3.30;1.60;;;3.50;99.90;;;;;;4843692;29;20181;-91
2020/12/25 03:38:28;;;;;;;4.93;1.37;;;3.50;99.90;;;;;;4843661;29;20339;-91
2020/12/25 03:40:54;;;;;;;6.23;1.73;;;3.50;99.90;;;;;;4843742;29;20295;-91
2020/12/25 03:43:20;;;;;;;4.27;1.20;;;3.40;99.90;;;;;;4843738;29;20791;-91
2020/12/25 03:45:46;;;;;;;3.70;1.33;;;3.50;99.90;;;;;;4843792;29;20390;-91
2020/12/25 03:48:13;;;;;;;4.47;1.50;;;3.50;99.90;;;;;;4843735;29;20284;-91
2020/12/25 03:50:39;;;;;;;4.37;1.50;;;3.50;99.90;;;;;;4843736;29;20306;-91
2020/12/25 03:53:07;;;;;;;5.63;1.47;;;3.40;99.90;;;;;;4843760;29;20264;-91
2020/12/25 03:55:33;;;;;;;3.27;1.57;;;3.50;99.90;;;;;;4843189;29;20233;-90
2020/12/25 03:57:59;;;;;;;3.53;1.57;;;3.50;99.90;;;;;;4843399;29;20775;-92
2020/12/25 04:00:24;;;;;;;5.70;2.00;;;3.40;99.90;;;;;;4843255;29;20313;-91
2020/12/25 04:02:50;;;;;;;4.50;1.60;;;3.40;99.90;;;;;;4843395;29;20178;-92
2020/12/25 04:05:16;;;;;;;3.30;1.50;;;3.40;99.90;;;;;;4843445;29;20174;-90
2020/12/25 04:07:42;;;;;;;4.93;1.50;;;3.40;99.90;;;;;;4843164;29;20697;-91
2020/12/25 04:10:08;;;;;;;3.43;1.50;;;3.40;99.90;;;;;;4843294;29;20272;-90
2020/12/25 04:12:33;;;;;;;5.10;1.90;;;3.40;99.90;;;;;;4843185;29;20212;-90
2020/12/25 04:14:59;;;;;;;7.13;1.80;;;3.40;99.90;;;;;;4843139;29;20184;-91
2020/12/25 04:17:25;;;;;;;4.53;1.93;;;3.40;99.90;;;;;;4843078;29;20201;-91
2020/12/25 04:19:51;;;;;;;5.60;1.77;;;3.30;99.90;;;;;;4842994;29;20177;-91
2020/12/25 04:22:17;;;;;;;5.37;1.90;;;3.40;99.90;;;;;;4843060;29;20204;-91
2020/12/25 04:24:44;;;;;;;3.20;1.80;;;3.30;99.90;;;;;;4842894;29;20683;-90
2020/12/25 04:27:09;;;;;;;6.40;1.87;;;3.40;99.90;;;;;;4843218;29;20178;-91
2020/12/25 04:29:35;;;;;;;6.40;1.60;;;3.40;99.90;;;;;;4842929;29;20183;-91
2020/12/25 04:32:01;;;;;;;7.27;1.90;;;3.30;99.90;;;;;;4842782;29;20219;-91
2020/12/25 04:34:27;;;;;;;7.53;1.63;;;3.30;99.90;;;;;;4843131;29;20173;-91
2020/12/25 04:36:53;;;;;;;4.30;1.50;;;3.30;99.90;;;;;;4842988;29;20241;-91
2020/12/25 04:39:18;;;;;;;4.70;1.87;;;3.30;99.90;;;;;;4843037;29;20178;-90
2020/12/25 04:41:47;;;;;;;5.23;1.60;;;3.40;99.90;;;;;;4842642;29;20567;-90
2020/12/25 04:44:14;;;;;;;4.60;1.80;;;3.40;99.90;;;;;;4842965;29;20533;-91
2020/12/25 04:46:41;;;;;;;12.30;2.37;;;3.40;99.90;;;;;;4842778;29;20175;-90
2020/12/25 04:49:08;;;;;;;3.47;1.60;;;3.30;99.90;;;;;;4842960;29;20536;-91
2020/12/25 04:51:37;;;;;;;2.40;1.67;;;3.30;99.90;;;;;;4842580;29;20211;-91
2020/12/25 04:54:03;;;;;;;3.70;1.60;;;3.30;99.90;;;;;;4842879;29;20182;-90
2020/12/25 04:56:29;;;;;;;4.10;1.60;;;3.30;99.90;;;;;;4842653;29;20243;-90
2020/12/25 04:58:55;;;;;;;5.43;1.87;;;3.30;99.90;;;;;;4842416;29;20209;-90
2020/12/25 05:01:21;;;;;;;2.80;1.80;;;3.30;99.90;;;;;;4842505;29;20258;-91
2020/12/25 05:03:46;;;;;;;3.67;1.83;;;3.30;99.90;;;;;;4842549;29;20187;-91
2020/12/25 05:06:18;;;;;;;2.90;1.70;;;3.30;99.90;;;;;;4844178;29;20519;-91
2020/12/25 05:08:49;;;;;;;3.30;1.90;;;3.30;99.90;;;;;;4848757;29;20239;-90
2020/12/25 05:11:17;;;;;;;3.07;1.70;;;3.30;99.90;;;;;;4848495;29;20226;-90
2020/12/25 05:13:54;;;;;;;4.73;1.80;;;3.30;99.90;;;;;;4848644;29;20184;-91
2020/12/25 05:16:21;;;;;;;3.50;1.70;;;3.30;99.90;;;;;;4848606;29;20188;-91
2020/12/25 05:18:52;;;;;;;4.43;1.70;;;3.20;99.90;;;;;;4848825;29;20206;-91
2020/12/25 05:21:20;;;;;;;3.37;2.03;;;3.20;99.90;;;;;;4848697;29;20208;-91
2020/12/25 05:23:47;;;;;;;5.63;1.60;;;3.20;99.90;;;;;;4848637;29;20180;-90
2020/12/25 05:26:14;;;;;;;4.87;1.80;;;3.20;99.90;;;;;;4848651;29;20516;-90
2020/12/25 05:28:45;;;;;;;4.77;1.97;;;3.20;99.90;;;;;;4848549;29;20257;-90
2020/12/25 05:31:12;;;;;;;2.87;1.80;;;3.20;99.90;;;;;;4848456;29;20216;-91
2020/12/25 05:33:38;;;;;;;3.57;1.50;;;3.20;99.90;;;;;;4848987;29;20287;-91
2020/12/25 05:36:08;;;;;;;2.77;1.60;;;3.20;99.90;;;;;;4848375;29;20188;-91
2020/12/25 05:38:37;;;;;;;6.20;1.50;;;3.20;99.90;;;;;;4848454;29;20741;-91
2020/12/25 05:41:07;;;;;;;8.50;1.73;;;3.20;99.90;;;;;;4848149;29;20206;-90
2020/12/25 05:43:33;;;;;;;4.97;1.40;;;3.20;99.90;;;;;;4848329;29;20184;-91
2020/12/25 05:45:59;;;;;;;4.00;1.30;;;3.20;99.90;;;;;;4848600;29;20220;-92
2020/12/25 05:48:25;;;;;;;5.13;1.70;;;3.30;99.90;;;;;;4848412;29;20749;-90
2020/12/25 05:50:53;;;;;;;2.83;1.30;;;3.20;99.90;;;;;;4848308;29;20201;-91
2020/12/25 05:53:19;;;;;;;5.37;1.47;;;3.30;99.90;;;;;;4848211;29;20195;-90
2020/12/25 05:55:46;;;;;;;5.30;1.83;;;3.20;99.90;;;;;;4848228;29;20323;-90
2020/12/25 05:58:14;;;;;;;3.17;1.40;;;3.20;99.90;;;;;;4848405;29;20208;-90
2020/12/25 06:00:43;;;;;;;2.27;1.43;;;3.20;99.90;;;;;;4848308;29;20209;-90
2020/12/25 06:03:15;;;;;;;5.97;1.90;;;3.20;99.90;;;;;;4848623;29;20212;-91
2020/12/25 06:05:44;;;;;;;3.13;1.30;;;3.20;99.90;;;;;;4848465;29;20184;-90
2020/12/25 06:08:18;;;;;;;4.50;1.60;;;3.20;99.90;;;;;;4848353;29;20590;-91
2020/12/25 06:10:46;;;;;;;2.63;1.80;;;3.20;99.90;;;;;;4848288;29;20290;-91
2020/12/25 06:13:15;;;;;;;2.47;1.53;;;3.20;99.90;;;;;;4847940;29;20296;-90
2020/12/25 06:15:49;;;;;;;3.03;1.60;;;3.10;99.90;;;;;;4848132;29;20240;-90
2020/12/25 06:18:21;;;;;;;6.90;1.93;;;3.10;99.90;;;;;;4846335;29;20209;-90
2020/12/25 06:20:56;;;;;;;3.03;1.40;;;3.20;99.90;;;;;;4845274;29;20211;-91
2020/12/25 06:23:24;;;;;;;4.97;1.80;;;3.20;99.90;;;;;;4845293;29;20177;-90
2020/12/25 06:25:52;;;;;;;4.40;1.67;;;3.10;99.90;;;;;;4844969;29;20187;-91
2020/12/25 06:28:21;;;;;;;3.93;1.93;;;3.10;99.90;;;;;;4845172;29;20192;-90
2020/12/25 06:30:47;;;;;;;4.27;1.50;;;3.10;99.90;;;;;;4844878;29;20209;-91
2020/12/25 06:33:13;;;;;;;5.03;1.80;;;3.10;99.90;;;;;;4845026;29;20189;-91
2020/12/25 06:35:48;;;;;;;1.90;1.20;;;3.10;99.90;;;;;;4844875;29;20181;-91
2020/12/25 06:38:15;;;;;;;4.47;1.60;;;3.10;99.90;;;;;;4844766;29;20217;-92
2020/12/25 06:40:41;;;;;;;1.57;1.27;;;3.10;99.90;;;;;;4844875;29;20295;-90
2020/12/25 06:43:18;;;;;;;5.17;1.47;;;3.10;99.90;;;;;;4845025;29;20262;-90
2020/12/25 06:45:49;;;;;;;4.67;1.60;;;3.10;99.90;;;;;;4844916;29;20272;-92
2020/12/25 06:48:20;;;;;;;3.10;1.50;;;3.10;99.90;;;;;;4844913;29;20189;-92
2020/12/25 06:50:55;;;;;;;3.90;1.57;;;3.10;99.90;;;;;;4845025;29;20352;-90
2020/12/25 06:53:36;;;;;;;5.37;1.70;;;3.20;99.90;;;;;;4844750;29;20198;-91
2020/12/25 06:56:20;;;;;;;6.10;1.53;;;3.10;99.90;;;;;;4844676;29;20697;-91
2020/12/25 06:58:48;;;;;;;5.37;1.47;;;3.10;99.90;;;;;;4844518;29;20205;-90
2020/12/25 07:01:34;;;;;;;2.03;1.23;;;3.10;99.90;;;;;;4844460;29;20205;-91
2020/12/25 07:03:59;;;;;;;2.53;1.20;;;3.10;99.90;;;;;;4829435;29;20181;-91
2020/12/25 07:06:30;;;;;;;4.30;1.70;;;3.00;99.90;;;;;;4844577;29;20174;-91
2020/12/25 07:09:07;;;;;;;2.37;1.30;;;3.00;99.90;;;;;;4844373;29;20229;-91
2020/12/25 07:11:33;;;;;;;5.30;1.53;;;2.90;99.90;;;;;;4844276;29;20235;-91
2020/12/25 07:13:59;;;;;;;5.23;1.47;;;2.90;99.90;;;;;;4844350;29;20209;-91
2020/12/25 07:16:26;;;;;;;3.90;1.60;;;2.90;99.90;;;;;;4844259;29;20595;-91
2020/12/25 07:18:52;;;;;;;3.70;1.63;;;2.90;99.90;;;;;;4844087;29;20217;-91
2020/12/25 07:21:17;;;;;;;4.37;1.50;;;2.90;99.90;;;;;;4844386;29;20223;-91
2020/12/25 07:23:45;;;;;;;5.73;1.40;;;2.90;99.90;;;;;;4844272;29;20181;-91
2020/12/25 07:26:11;;;;;;;3.43;1.50;;;2.90;99.90;;;;;;4844176;29;20205;-91
2020/12/25 07:28:38;;;;;;;4.80;1.50;;;2.90;99.90;;;;;;4844211;29;20698;-91
2020/12/25 07:31:05;;;;;;;5.20;1.37;;;2.90;99.90;;;;;;4843891;29;20197;-90
2020/12/25 07:33:32;;;;;;;5.40;1.83;;;2.90;99.90;;;;;;4843972;29;20181;-91
2020/12/25 07:35:58;;;;;;;6.17;1.73;;;2.80;99.90;;;;;;4844269;29;20177;-92
2020/12/25 07:38:25;;;;;;;3.73;1.77;;;2.80;99.90;;;;;;4843885;29;20678;-92
2020/12/25 07:40:52;;;;;;;5.13;1.53;;;2.80;99.90;;;;;;4843943;29;20206;-91
2020/12/25 07:43:19;;;;;;;3.30;1.83;;;2.80;99.90;;;;;;4843931;29;20550;-91
2020/12/25 07:45:46;;;;;;;3.63;1.43;;;2.80;99.90;;;;;;4843678;29;20186;-90
2020/12/25 07:48:13;;;;;;;6.23;1.23;;;2.80;99.90;;;;;;4843761;29;20184;-91
2020/12/25 07:50:41;;;;;;;6.70;1.60;;;2.80;99.90;;;;;;4843650;29;20294;-91
2020/12/25 07:53:15;;;;;;;3.27;1.30;;;2.80;99.90;;;;;;4843620;29;20199;-91
2020/12/25 07:55:45;;;;;;;4.23;1.67;;;2.80;99.90;;;;;;4843739;29;20246;-91
2020/12/25 07:58:18;;;;;;;5.10;1.90;;;2.80;99.90;;;;;;4843635;29;20216;-91
2020/12/25 08:00:45;;;;;;;6.53;2.00;;;2.90;99.90;;;;;;4843809;29;20199;-92
2020/12/25 08:03:12;;;;;;;6.50;2.40;;;2.80;99.90;;;;;;4843402;29;20185;-91
2020/12/25 08:05:39;;;;;;;7.70;2.20;;;2.80;99.90;;;;;;4843478;29;20673;-91
2020/12/25 08:08:05;;;;;;;9.67;1.80;;;2.80;99.90;;;;;;4843617;29;20188;-90
2020/12/25 08:10:33;;;;;;;11.40;2.40;;;2.80;99.90;;;;;;4843375;29;20227;-91
2020/12/25 08:13:00;;;;;;;3.10;2.00;;;2.80;99.90;;;;;;4843553;29;20237;-91
2020/12/25 08:15:26;;;;;;;8.73;2.80;;;2.80;99.90;;;;;;4843609;29;20185;-91
2020/12/25 08:17:54;;;;;;;6.33;2.80;;;2.70;99.90;;;;;;4843518;29;20215;-91
2020/12/25 08:20:24;;;;;;;6.53;2.70;;;2.70;99.90;;;;;;4843322;29;20183;-91
2020/12/25 08:22:58;;;;;;;6.97;3.23;;;2.70;99.90;;;;;;4843507;29;20210;-91
2020/12/25 08:25:27;;;;;;;8.10;3.50;;;2.70;99.90;;;;;;4843833;29;20205;-91
2020/12/25 08:27:53;;;;;;;8.07;3.50;;;2.60;99.90;;;;;;4844519;29;20185;-90
2020/12/25 08:30:22;;;;;;;5.70;3.53;;;2.60;99.90;;;;;;4843180;29;20213;-91
2020/12/25 08:32:50;;;;;;;8.80;3.67;;;2.60;99.90;;;;;;4843502;29;20189;-89
2020/12/25 08:35:18;;;;;;;9.50;3.30;;;2.60;99.90;;;;;;4843318;29;20186;-90
2020/12/25 08:38:03;;;;;;;7.83;3.40;;;2.60;99.90;;;;;;4842914;29;20296;-90
2020/12/25 08:40:36;;;;;;;7.20;3.90;;;2.60;99.90;;;;;;4842948;29;20188;-91
2020/12/25 08:43:12;;;;;;;6.63;3.50;;;2.50;99.90;;;;;;4842948;29;20213;-90
2020/12/25 08:45:51;;;;;;;6.43;3.77;;;2.50;99.90;;;;;;4842946;29;20180;-91
2020/12/25 08:48:17;;;;;;;10.37;3.70;;;2.50;99.90;;;;;;4843138;29;20182;-91
2020/12/25 08:50:43;;;;;;;10.90;3.83;;;2.50;99.90;;;;;;4842826;29;20754;-91
2020/12/25 08:53:10;;;;;;;7.13;3.57;;;2.40;99.90;;;;;;4843074;29;20569;-91
2020/12/25 08:55:36;;;;;;;10.67;3.67;;;2.40;99.90;;;;;;4842973;29;20331;-91
2020/12/25 08:58:03;;;;;;;10.23;3.87;;;2.40;99.90;;;;;;4842915;29;20300;-91
2020/12/25 09:00:29;;;;;;;9.93;4.00;;;2.40;99.90;;;;;;4842889;29;20181;-91
2020/12/25 09:02:56;;;;;;;9.33;3.80;;;2.40;99.90;;;;;;4842689;29;20178;-92
2020/12/25 09:05:22;;;;;;;8.50;3.57;;;2.40;99.90;;;;;;4842680;29;20189;-91
2020/12/25 09:07:48;;;;;;;7.70;3.53;;;2.30;99.90;;;;;;4842889;29;20181;-91
2020/12/25 09:10:14;;;;;;;14.83;3.40;;;2.40;99.90;;;;;;4842898;29;20272;-90
2020/12/25 09:12:39;;;;;;;5.97;3.43;;;2.30;99.90;;;;;;4842943;29;20213;-91
2020/12/25 09:15:05;;;;;;;6.67;3.63;;;2.30;99.90;;;;;;4842641;29;20640;-91
2020/12/25 09:17:31;;;;;;;11.10;3.97;;;2.30;99.90;;;;;;4842530;29;20213;-91
2020/12/25 09:19:57;;;;;;;11.20;3.43;;;2.40;99.90;;;;;;4842771;29;20660;-91
2020/12/25 09:22:22;;;;;;;7.23;3.57;;;2.40;99.90;;;;;;4843678;29;20213;-91
2020/12/25 09:24:48;;;;;;;9.33;3.30;;;2.40;99.90;;;;;;4843625;29;20154;-90
2020/12/25 09:27:14;;;;;;;7.23;3.77;;;2.50;99.90;;;;;;4842547;29;20206;-93
2020/12/25 09:29:40;;;;;;;9.43;3.83;;;2.50;99.90;;;;;;4842522;29;20650;-90
2020/12/25 09:32:05;;;;;;;9.50;4.20;;;2.50;99.90;;;;;;4842270;29;20201;-90
2020/12/25 09:34:31;;;;;;;9.93;3.87;;;2.60;99.90;;;;;;4842412;29;20178;-90
2020/12/25 09:36:57;;;;;;;7.83;3.83;;;2.50;99.90;;;;;;4842735;29;20200;-90
2020/12/25 09:39:22;;;;;;;8.33;3.20;;;2.50;99.90;;;;;;4842760;29;20246;-90
2020/12/25 09:41:49;;;;;;;10.03;4.00;;;2.50;99.90;;;;;;4842493;29;20572;-90
2020/12/25 09:44:14;;;;;;;7.00;3.40;;;2.50;99.90;;;;;;4842385;29;20601;-92
2020/12/25 09:46:43;;;;;;;14.27;4.90;;;2.40;99.90;;;;;;4842451;29;20193;-90
2020/12/25 09:49:09;;;;;;;8.97;3.87;;;2.40;99.90;;;;;;4842161;29;20186;-91
2020/12/25 09:51:35;;;;;;;11.77;3.50;;;2.30;99.90;;;;;;4842084;29;20202;-90
2020/12/25 09:54:01;;;;;;;12.00;4.23;;;2.30;99.90;;;;;;4845067;29;20318;-91
2020/12/25 09:56:27;;;;;;;8.27;3.80;;;2.40;99.90;;;;;;4845609;29;20248;-91
2020/12/25 09:58:52;;;;;;;11.00;4.40;;;2.50;99.90;;;;;;4845743;29;20280;-90
2020/12/25 10:01:21;;;;;;;11.53;3.87;;;2.50;99.90;;;;;;4845363;29;20197;-90
2020/12/25 10:03:48;;;;;;;11.97;4.37;;;2.60;99.90;;;;;;4845476;29;20178;-90
2020/12/25 10:06:19;;;;;;;7.60;4.13;;;2.80;99.90;;;;;;4845739;29;20208;-90
2020/12/25 10:08:45;;;;;;;8.90;3.90;;;2.80;99.90;;;;;;4846227;29;20235;-91
2020/12/25 10:11:11;;;;;;;8.13;4.40;;;2.80;99.90;;;;;;4845464;29;20617;-92
2020/12/25 10:13:38;;;;;;;9.03;4.10;;;2.70;99.90;;;;;;4845533;29;20640;-92
2020/12/25 10:16:03;;;;;;;15.27;4.83;;;2.60;99.90;;;;;;4845228;29;20189;-91
2020/12/25 10:18:29;;;;;;;9.80;4.20;;;2.60;99.90;;;;;;4845700;29;20236;-91
2020/12/25 10:20:55;;;;;;;9.10;4.77;;;2.60;99.90;;;;;;4845633;29;20201;-90
2020/12/25 10:23:22;;;;;;;7.80;4.37;;;2.50;99.90;;;;;;4845190;29;20240;-90
2020/12/25 10:25:47;;;;;;;10.27;4.63;;;2.60;99.90;;;;;;4845626;29;20273;-90
2020/12/25 10:28:15;;;;;;;5.33;4.03;;;2.50;99.90;;;;;;4845525;29;20268;-90
2020/12/25 10:30:40;;;;;;;9.70;4.53;;;2.40;99.90;;;;;;4845158;29;20209;-90
2020/12/25 10:33:06;;;;;;;7.80;4.57;;;2.40;99.90;;;;;;4845232;29;20181;-90
2020/12/25 10:35:32;;;;;;;14.57;4.70;;;2.40;99.90;;;;;;4845131;29;20656;-91
2020/12/25 10:37:57;;;;;;;11.60;4.27;;;2.30;99.90;;;;;;4844890;29;20208;-91
2020/12/25 10:40:23;;;;;;;7.70;4.10;;;2.30;99.90;;;;;;4844860;29;20626;-91
2020/12/25 10:42:49;;;;;;;11.67;4.87;;;2.20;99.90;;;;;;4845175;29;20265;-90
2020/12/25 10:45:15;;;;;;;7.37;3.40;;;2.20;99.90;;;;;;4844730;29;20205;-91
2020/12/25 10:47:40;;;;;;;7.97;3.80;;;2.40;99.90;;;;;;4845159;29;20242;-92
2020/12/25 10:50:09;;;;;;;6.10;3.63;;;2.40;99.90;;;;;;4846217;29;20277;-90
2020/12/25 10:52:35;;;;;;;8.80;3.60;;;2.50;99.90;;;;;;4845119;29;20212;-91
2020/12/25 10:55:01;;;;;;;5.17;3.30;;;2.70;99.90;;;;;;4846905;29;20193;-90
2020/12/25 10:57:26;;;;;;;5.70;2.97;;;2.80;99.90;;;;;;4847863;29;20212;-91
2020/12/25 10:59:52;;;;;;;9.30;3.87;;;2.90;99.90;;;;;;4847939;29;20225;-91
2020/12/25 11:02:18;;;;;;;9.97;3.97;;;2.90;99.90;;;;;;4847866;29;20208;-90
2020/12/25 11:04:44;;;;;;;10.47;3.87;;;3.20;99.90;;;;;;4846639;29;20182;-91
2020/12/25 11:07:09;;;;;;;6.97;3.10;;;3.30;99.90;;;;;;4847315;29;20205;-91
2020/12/25 11:09:35;;;;;;;11.10;3.37;;;3.40;99.90;;;;;;4847434;29;20660;-92
2020/12/25 11:12:01;;;;;;;7.70;3.60;;;3.30;99.90;;;;;;4847410;29;20210;-91
2020/12/25 11:14:27;;;;;;;6.40;2.70;;;3.20;99.90;;;;;;4848976;29;20174;-92
2020/12/25 11:16:55;;;;;;;11.37;4.10;;;3.10;99.90;;;;;;4847510;29;20182;-91
2020/12/25 11:19:22;;;;;;;7.30;3.53;;;3.00;99.90;;;;;;4847860;29;20260;-90
2020/12/25 11:21:48;;;;;;;9.17;3.47;;;3.00;99.90;;;;;;4847238;29;20283;-91
2020/12/25 11:24:14;;;;;;;10.03;2.90;;;3.00;99.90;;;;;;4847502;29;20205;-92
2020/12/25 11:26:40;;;;;;;10.47;3.60;;;2.90;99.90;;;;;;4847221;29;20608;-91
2020/12/25 11:29:07;;;;;;;11.23;3.60;;;2.90;99.90;;;;;;4847286;29;20271;-91
2020/12/25 11:31:34;;;;;;;8.00;3.30;;;2.90;99.90;;;;;;4847397;29;20208;-91
2020/12/25 11:34:00;;;;;;;11.60;3.27;;;2.90;99.90;;;;;;4847358;29;20549;-91
2020/12/25 11:36:34;;;;;;;5.73;3.47;;;2.90;99.90;;;;;;4847363;29;20181;-91
2020/12/25 11:39:03;;;;;;;9.03;4.90;;;2.90;99.90;;;;;;4847092;29;20212;-91
2020/12/25 11:41:29;;;;;;;12.37;4.40;;;3.00;99.90;;;;;;4846837;29;20226;-91
2020/12/25 11:43:55;;;;;;;6.17;3.30;;;3.00;99.90;;;;;;4846810;29;20173;-91
2020/12/25 11:46:23;;;;;;;11.50;3.07;;;3.00;99.90;;;;;;4846796;29;20177;-91
2020/12/25 11:48:50;;;;;;;6.13;2.93;;;3.00;99.90;;;;;;4847133;29;20205;-90
2020/12/25 11:51:21;;;;;;;7.67;3.00;;;3.00;99.90;;;;;;4847066;29;20266;-90
2020/12/25 11:53:47;;;;;;;5.70;2.90;;;3.10;99.90;;;;;;4846946;29;20585;-91
2020/12/25 11:56:21;;;;;;;9.33;2.90;;;3.10;99.90;;;;;;4846748;29;20224;-91
2020/12/25 11:58:47;;;;;;;4.97;2.97;;;3.10;99.90;;;;;;4846858;29;20204;-91
2020/12/25 12:01:14;;;;;;;5.27;3.07;;;3.10;99.90;;;;;;4846776;29;20257;-90
2020/12/25 12:03:42;;;;;;;6.87;2.90;;;3.10;99.90;;;;;;4846657;29;20272;-90
2020/12/25 12:06:09;;;;;;;7.80;2.90;;;3.10;99.90;;;;;;4846704;29;20229;-91
2020/12/25 12:08:38;;;;;;;7.60;2.73;;;3.00;99.90;;;;;;4846633;29;20176;-91
2020/12/25 12:11:04;;;;;;;6.63;2.80;;;3.00;99.90;;;;;;4846440;29;20294;-91
2020/12/25 12:13:30;;;;;;;5.10;2.87;;;3.00;99.90;;;;;;4846988;29;20313;-91
2020/12/25 12:15:55;;;;;;;6.33;2.90;;;2.90;99.90;;;;;;4846100;29;20172;-91
2020/12/25 12:18:24;;;;;;;7.27;2.87;;;2.90;99.90;;;;;;4846650;29;20215;-91
2020/12/25 12:20:50;;;;;;;7.63;2.40;;;2.90;99.90;;;;;;4846159;29;20213;-91
2020/12/25 12:23:16;;;;;;;6.17;2.13;;;2.90;99.90;;;;;;4846705;29;20181;-91
2020/12/25 12:25:42;;;;;;;9.13;3.00;;;3.00;99.90;;;;;;4846558;29;20177;-91
2020/12/25 12:28:07;;;;;;;6.07;2.87;;;3.00;99.90;;;;;;4846538;29;20175;-91
2020/12/25 12:30:33;;;;;;;6.93;2.73;;;3.00;99.90;;;;;;4846404;29;20602;-91
2020/12/25 12:32:59;;;;;;;4.97;2.07;;;3.10;99.90;;;;;;4846157;29;20183;-91
2020/12/25 12:35:25;;;;;;;6.17;2.57;;;3.10;99.90;;;;;;4846031;29;20183;-91
2020/12/25 12:37:51;;;;;;;8.37;2.47;;;3.10;99.90;;;;;;4846158;29;20232;-92
2020/12/25 12:40:16;;;;;;;6.67;2.23;;;3.20;99.90;;;;;;4845955;29;20173;-92
2020/12/25 12:42:42;;;;;;;7.30;2.43;;;3.30;99.90;;;;;;4845732;29;20176;-91
2020/12/25 12:45:09;;;;;;;9.37;2.70;;;3.40;99.90;;;;;;4845881;29;20176;-92
2020/12/25 12:47:36;;;;;;;6.37;2.60;;;3.40;99.90;;;;;;4845948;29;20201;-91
2020/12/25 12:50:07;;;;;;;6.33;2.30;;;3.50;99.90;;;;;;4845753;29;20203;-92
2020/12/25 12:52:33;;;;;;;6.43;2.00;;;3.60;99.90;;;;;;4846043;29;20211;-91
2020/12/25 12:54:59;;;;;;;5.73;2.83;;;3.60;99.90;;;;;;4845682;29;20542;-91
2020/12/25 12:57:26;;;;;;;5.37;1.80;;;3.70;99.90;;;;;;4845724;29;20215;-91